MA38 weather

Fitchburg Paper Company Heliport
Fitchburg, Massachusetts, United States

Public forecast

Using degrees Fahrenheit for public forecast. Weather courtesy of forecast.io.

Closest aviation weather report (METAR) to Fitchburg Paper Company Heliport

Closest report is Fitchburg Municipal Airport, 3.4 nm (6.4 km) ESE. Retrieved 2020/08/08 07:52 UTC (24 minutes ago):

KFIT 080752Z AUTO 00000KT 10SM CLR 18/15 A3017 RMK AO2 SLP216 T01830150

Closest aviation forecast (TAF) to Fitchburg Paper Company Heliport

Closest forecast is Worcester Regional Airport, 18.9 nm (35.0 km) S. Retrieved 2020/08/08 06:33 UTC (2 hours ago):

TAF KORH 080529Z 0806/0906 05004KT P6SM BKN080 FM081100 04004KT P6SM SCT080 FM081500 06003KT P6SM SCT045 FM081700 00000KT P6SM BKN045 FM082300 18003KT P6SM SCT050